UUMO METAR and TAF | Updated Today

UUMO METAR

Ostafyevo International Airport

Observation time: 21 min. ago

UUMO 062000Z 24003MPS 9999 BKN011 11/11 Q1016 R25/CLRD60 NOSIG RMK QFE746/0995

Need help? Read our tutorial on how to read METARs or read the parsed version below.

Ostafyevo International Airport (UUMO) METAR

  • Weather conditions on Thu, 06 Oct 2022 20:00:00 +0000 (21 min. ago):
  • Present conditions: Dry
  • Clouds: Broken sky at 335 meters
  • Visibility: Greater than 10 km
  • Wind: 240 degrees at 3 knots
  • Temperature: 11 celsius
  • Dew point: 11 celsius
  • Pressure: 1016 millibars
  • Remarks: QFE746/0995


Useful to know...

UUMO TAF

Ostafyevo International Airport

TAF UUMO 061658Z 0618/0703 21003G08MPS 9999 BKN020 TEMPO 0621/0703 27005G10MPS -SHRA BKN015CB
Observation time: 3:23 hr. ago
Need help? Read our tutorial on how to read TAFs or read the parsed version below.

Parsed version of TAF for Ostafyevo International Airport (UUMO)

  • From 06 October at 18:00 UTC, to day 07 of the month at 03:00 UTC
  • Clouds: Broken sky at 610 meters
  • Visibility: Greater than 10 km
  • Wind: 210 degrees at 3
  • Expected to arise temporarily, from 06 October at 21:00 UTC, to day 07 of the month at 03:00 UTC
  • Clouds: Broken sky at 457 meters, cumulonimbus
  • Wind: 270 degrees at 5
  • Other: Light showers of rain